Time;durP1;ratioP1;P1;durP2;ratioP2;P2;SDS_P1;SDS_P2;PMS_P1;PMS_P2;Temp;Humidity;BMP_temperature;BMP_pressure;BME280_temperature;BME280_humidity;BME280_pressure;Samples;Min_cycle;Max_cycle;Signal;HPM_P1;HPM_P2
2024/01/30 00:01:39;;;;;;;11.73;10.93;;;9.60;17.20;;;;;;6292205;22;20561;-80
2024/01/30 00:04:12;;;;;;;13.03;12.07;;;9.40;18.00;;;;;;6290664;22;20165;-81
2024/01/30 00:06:39;;;;;;;12.03;11.13;;;9.40;18.50;;;;;;6318816;22;20600;-81
2024/01/30 00:09:08;;;;;;;13.43;12.53;;;9.40;18.60;;;;;;6293184;22;20420;-80
2024/01/30 00:11:34;;;;;;;13.20;12.10;;;9.40;18.10;;;;;;6295654;22;20407;-81
2024/01/30 00:14:08;;;;;;;11.93;11.13;;;9.50;18.00;;;;;;6295603;22;20376;-80
2024/01/30 00:16:34;;;;;;;12.00;11.10;;;9.50;17.70;;;;;;6291937;22;20156;-80
2024/01/30 00:19:02;;;;;;;11.70;10.93;;;9.50;17.00;;;;;;6290874;22;20431;-80
2024/01/30 00:21:27;;;;;;;13.07;10.53;;;9.50;16.90;;;;;;6290904;22;20175;-79
2024/01/30 00:23:53;;;;;;;11.43;10.60;;;9.60;16.90;;;;;;6289199;22;20384;-81
2024/01/30 00:26:18;;;;;;;12.90;11.97;;;9.50;16.90;;;;;;6288353;22;20409;-81
2024/01/30 00:28:44;;;;;;;12.27;11.57;;;9.50;17.10;;;;;;6290755;22;20184;-79
2024/01/30 00:31:12;;;;;;;11.87;11.00;;;9.50;17.40;;;;;;6318105;22;20143;-79
2024/01/30 00:33:42;;;;;;;11.97;11.10;;;9.50;17.40;;;;;;6290872;22;20146;-79
2024/01/30 00:36:09;;;;;;;11.63;10.83;;;9.50;17.50;;;;;;6317047;22;20954;-81
2024/01/30 00:38:35;;;;;;;12.87;11.70;;;9.40;17.50;;;;;;6316417;22;20411;-80
2024/01/30 00:41:01;;;;;;;12.27;11.47;;;9.40;17.60;;;;;;6322014;22;20368;-80
2024/01/30 00:43:27;;;;;;;12.40;11.60;;;9.30;18.40;;;;;;6319729;22;20372;-81
2024/01/30 00:45:54;;;;;;;12.13;11.20;;;9.30;18.20;;;;;;6317301;22;20396;-82
2024/01/30 00:48:27;;;;;;;11.43;10.73;;;9.30;18.00;;;;;;6318550;22;20450;-80
2024/01/30 00:50:53;;;;;;;12.60;11.70;;;9.40;18.00;;;;;;6318631;22;20427;-81
2024/01/30 00:53:20;;;;;;;11.87;11.00;;;9.40;17.80;;;;;;6293037;22;20842;-79
2024/01/30 00:55:46;;;;;;;12.87;11.70;;;9.20;18.40;;;;;;6293013;22;20182;-80
2024/01/30 00:58:12;;;;;;;11.83;11.03;;;9.20;18.50;;;;;;6277617;22;20443;-79
2024/01/30 01:00:37;;;;;;;11.43;10.73;;;9.20;18.40;;;;;;6271011;22;20158;-80
2024/01/30 01:03:03;;;;;;;13.17;12.20;;;9.10;18.60;;;;;;6266763;22;20158;-79
2024/01/30 01:05:29;;;;;;;11.80;10.70;;;9.00;19.00;;;;;;6276510;22;20168;-79
2024/01/30 01:07:54;;;;;;;13.37;12.40;;;8.80;19.30;;;;;;6236601;23;20190;-79
2024/01/30 01:10:20;;;;;;;11.47;10.60;;;8.90;19.50;;;;;;6236815;23;20389;-79
2024/01/30 01:12:46;;;;;;;11.53;10.77;;;8.90;19.30;;;;;;6266063;23;20147;-79
2024/01/30 01:15:12;;;;;;;11.07;10.17;;;9.00;19.20;;;;;;6265139;22;20189;-79
2024/01/30 01:17:38;;;;;;;11.67;10.87;;;9.20;19.00;;;;;;6265508;23;20370;-80
2024/01/30 01:20:05;;;;;;;12.07;11.20;;;9.20;18.70;;;;;;6265600;23;20160;-80
2024/01/30 01:22:31;;;;;;;11.37;10.70;;;9.20;18.50;;;;;;6238995;23;20401;-80
2024/01/30 01:24:56;;;;;;;11.93;11.13;;;9.30;18.40;;;;;;6239172;23;20394;-80
2024/01/30 01:27:22;;;;;;;12.50;11.50;;;9.30;18.30;;;;;;6237824;23;20246;-80
2024/01/30 01:29:47;;;;;;;12.53;11.57;;;9.30;18.40;;;;;;6235571;23;20162;-80
2024/01/30 01:32:13;;;;;;;11.73;10.83;;;9.40;18.40;;;;;;6235775;23;20156;-79
2024/01/30 01:34:38;;;;;;;11.67;10.87;;;9.30;18.50;;;;;;6239476;23;20183;-79
2024/01/30 01:37:04;;;;;;;11.27;10.57;;;9.10;18.90;;;;;;6238201;23;20151;-79
2024/01/30 01:39:29;;;;;;;11.93;11.23;;;8.80;19.50;;;;;;6265746;23;20459;-81
2024/01/30 01:41:55;;;;;;;12.30;11.50;;;8.70;19.90;;;;;;6238528;23;20151;-79
2024/01/30 01:44:20;;;;;;;11.97;11.07;;;8.70;20.10;;;;;;6239336;22;20195;-80
2024/01/30 01:46:47;;;;;;;11.27;10.57;;;8.80;20.00;;;;;;6239277;23;20158;-79
2024/01/30 01:49:14;;;;;;;11.67;10.87;;;8.70;19.80;;;;;;6263942;23;20175;-80
2024/01/30 01:51:41;;;;;;;12.57;11.87;;;8.60;20.30;;;;;;6239119;23;20449;-79
2024/01/30 01:54:07;;;;;;;11.63;10.93;;;8.70;20.20;;;;;;6239006;23;20383;-79
2024/01/30 01:56:34;;;;;;;10.77;10.07;;;8.80;19.90;;;;;;6237429;23;20422;-80
2024/01/30 01:59:06;;;;;;;11.60;10.80;;;8.90;19.70;;;;;;6239182;23;20390;-80
2024/01/30 02:01:33;;;;;;;12.97;12.13;;;9.00;19.60;;;;;;6239123;23;20409;-80
2024/01/30 02:03:59;;;;;;;11.97;11.20;;;9.10;19.50;;;;;;6267620;23;20413;-80
2024/01/30 02:06:26;;;;;;;12.17;11.27;;;9.10;19.30;;;;;;6239562;23;20413;-79
2024/01/30 02:08:51;;;;;;;11.90;11.27;;;9.10;19.40;;;;;;6239229;23;20494;-80
2024/01/30 02:11:18;;;;;;;12.70;11.70;;;9.00;19.40;;;;;;6266371;23;20731;-80
2024/01/30 02:13:43;;;;;;;11.77;11.07;;;9.10;19.40;;;;;;6265998;23;20154;-80
2024/01/30 02:16:09;;;;;;;12.57;11.87;;;9.10;19.30;;;;;;6240007;23;20477;-80
2024/01/30 02:18:35;;;;;;;12.67;11.87;;;9.10;19.30;;;;;;6243990;23;20181;-80
2024/01/30 02:21:04;;;;;;;11.77;10.97;;;9.10;19.20;;;;;;6239482;23;20182;-79
2024/01/30 02:23:33;;;;;;;11.30;10.53;;;9.10;19.20;;;;;;6239524;23;20390;-80
2024/01/30 02:25:58;;;;;;;11.77;10.97;;;8.80;19.50;;;;;;6265498;22;20398;-80
2024/01/30 02:28:24;;;;;;;10.90;10.20;;;8.30;20.70;;;;;;6267257;23;20472;-80
2024/01/30 02:30:50;;;;;;;13.03;11.93;;;8.20;21.60;;;;;;6265212;23;20144;-80
2024/01/30 02:33:15;;;;;;;11.20;10.50;;;8.30;21.30;;;;;;6238520;23;20270;-79
2024/01/30 02:35:41;;;;;;;12.03;11.23;;;8.50;21.00;;;;;;6264825;22;20163;-79
2024/01/30 02:38:06;;;;;;;11.53;10.53;;;8.60;20.70;;;;;;6238338;23;20165;-79
2024/01/30 02:40:32;;;;;;;11.33;10.60;;;8.70;20.50;;;;;;6238043;23;20155;-78
2024/01/30 02:42:59;;;;;;;12.00;11.30;;;8.80;20.30;;;;;;6238265;23;20156;-79
2024/01/30 02:45:25;;;;;;;11.30;10.60;;;8.80;20.10;;;;;;6263659;22;20224;-79
2024/01/30 02:47:51;;;;;;;11.53;10.77;;;8.80;20.10;;;;;;6237265;23;20425;-79
2024/01/30 02:50:17;;;;;;;11.53;10.83;;;8.90;20.00;;;;;;6238517;23;20179;-79
2024/01/30 02:52:43;;;;;;;11.47;10.77;;;8.90;19.90;;;;;;6237889;23;20151;-79
2024/01/30 02:55:09;;;;;;;12.13;11.37;;;9.00;19.80;;;;;;6264003;22;20757;-79
2024/01/30 02:57:35;;;;;;;12.60;11.70;;;9.00;19.70;;;;;;6238055;23;20382;-79
2024/01/30 03:00:01;;;;;;;12.43;11.53;;;9.00;19.80;;;;;;6238069;23;20564;-79
2024/01/30 03:02:26;;;;;;;12.63;11.37;;;9.00;19.70;;;;;;6236618;23;20215;-79
2024/01/30 03:04:52;;;;;;;12.27;11.47;;;9.00;19.50;;;;;;6237144;23;20186;-79
2024/01/30 03:07:17;;;;;;;12.03;11.33;;;9.00;20.10;;;;;;6267657;23;20155;-80
2024/01/30 03:09:43;;;;;;;12.53;11.83;;;8.90;19.80;;;;;;6238158;23;20159;-79
2024/01/30 03:12:09;;;;;;;12.10;11.40;;;8.90;19.90;;;;;;6235818;23;20155;-79
2024/01/30 03:14:35;;;;;;;12.60;11.87;;;8.90;19.90;;;;;;6235763;23;20470;-80
2024/01/30 03:17:00;;;;;;;13.00;12.20;;;9.00;19.80;;;;;;6261538;23;20175;-80
2024/01/30 03:19:25;;;;;;;13.57;12.70;;;9.00;19.60;;;;;;6235580;23;20181;-80
2024/01/30 03:21:51;;;;;;;13.03;12.13;;;9.00;19.50;;;;;;6236357;23;20155;-81
2024/01/30 03:24:17;;;;;;;13.17;12.07;;;9.00;19.50;;;;;;6237543;22;20186;-79
2024/01/30 03:26:43;;;;;;;12.97;12.17;;;9.10;19.40;;;;;;6237884;23;20185;-80
2024/01/30 03:29:09;;;;;;;13.23;12.33;;;9.00;19.40;;;;;;6237403;23;20182;-78
2024/01/30 03:31:34;;;;;;;12.60;11.80;;;9.00;19.50;;;;;;6265699;23;20844;-78
2024/01/30 03:34:01;;;;;;;12.87;11.90;;;9.00;19.50;;;;;;6238933;23;20151;-79
2024/01/30 03:36:26;;;;;;;12.60;11.80;;;9.00;19.50;;;;;;6237908;23;20648;-79
2024/01/30 03:38:52;;;;;;;13.03;12.23;;;9.00;19.50;;;;;;6238502;23;20390;-79
2024/01/30 03:41:17;;;;;;;13.47;12.27;;;9.00;19.50;;;;;;6236655;23;20186;-79
2024/01/30 03:43:43;;;;;;;12.90;12.07;;;9.00;19.40;;;;;;6235523;23;20167;-79
2024/01/30 03:46:08;;;;;;;13.23;12.23;;;9.00;19.40;;;;;;6236961;23;20179;-79
2024/01/30 03:48:34;;;;;;;12.03;11.33;;;9.00;19.30;;;;;;6257790;23;20201;-78
2024/01/30 03:51:00;;;;;;;12.60;11.80;;;9.00;19.30;;;;;;6227324;23;20620;-79
2024/01/30 03:53:25;;;;;;;12.83;12.03;;;9.00;19.20;;;;;;6228971;23;20541;-78
2024/01/30 03:55:51;;;;;;;13.20;12.37;;;9.00;19.20;;;;;;6225250;23;20187;-79
2024/01/30 03:58:16;;;;;;;13.50;12.50;;;9.00;19.30;;;;;;6222016;23;20155;-79
2024/01/30 04:00:42;;;;;;;12.07;11.30;;;8.90;19.20;;;;;;6221826;23;20608;-79
2024/01/30 04:03:07;;;;;;;13.73;12.73;;;8.90;19.10;;;;;;6235389;23;20163;-79
2024/01/30 04:05:33;;;;;;;13.87;12.90;;;8.90;19.10;;;;;;6253281;22;20177;-79
2024/01/30 04:07:59;;;;;;;13.40;12.60;;;8.90;19.10;;;;;;6224387;23;20270;-78
2024/01/30 04:10:24;;;;;;;13.43;12.53;;;8.90;19.30;;;;;;6224449;23;20147;-78
2024/01/30 04:12:51;;;;;;;12.10;11.40;;;8.90;19.40;;;;;;6251237;23;20170;-79
2024/01/30 04:15:17;;;;;;;12.33;11.53;;;8.90;19.20;;;;;;6228432;23;20173;-78
2024/01/30 04:17:43;;;;;;;13.90;13.20;;;9.00;19.20;;;;;;6231547;23;20390;-78
2024/01/30 04:20:14;;;;;;;13.87;12.90;;;9.00;19.20;;;;;;6230429;23;20468;-78
2024/01/30 04:22:39;;;;;;;12.60;11.80;;;9.10;19.00;;;;;;6232974;23;20381;-78
2024/01/30 04:25:05;;;;;;;12.83;11.93;;;9.10;18.80;;;;;;6232009;23;20440;-78
2024/01/30 04:27:31;;;;;;;13.80;13.10;;;9.30;18.60;;;;;;6259512;23;20205;-77
2024/01/30 04:29:56;;;;;;;14.53;13.43;;;9.20;18.30;;;;;;6231080;23;20171;-79
2024/01/30 04:32:22;;;;;;;12.80;12.00;;;9.00;18.90;;;;;;6231462;23;20186;-77
2024/01/30 04:34:47;;;;;;;12.40;11.53;;;9.00;19.30;;;;;;6231184;23;20202;-78
2024/01/30 04:37:13;;;;;;;13.97;13.03;;;8.90;19.30;;;;;;6257913;23;20586;-77
2024/01/30 04:39:38;;;;;;;13.57;12.77;;;8.90;19.40;;;;;;6259886;23;20147;-77
2024/01/30 04:42:04;;;;;;;13.70;12.90;;;9.00;19.10;;;;;;6258015;23;20213;-77
2024/01/30 04:44:30;;;;;;;13.83;12.70;;;9.10;18.70;;;;;;6259402;22;20163;-78
2024/01/30 04:46:58;;;;;;;12.87;12.00;;;9.30;18.60;;;;;;6232689;23;20445;-78
2024/01/30 04:49:24;;;;;;;13.20;12.40;;;9.40;18.40;;;;;;6232494;23;20175;-78
2024/01/30 04:51:49;;;;;;;13.13;12.47;;;9.40;18.20;;;;;;6259626;22;20366;-77
2024/01/30 04:54:15;;;;;;;12.90;12.20;;;9.50;18.10;;;;;;6235503;22;20154;-79
2024/01/30 04:56:40;;;;;;;13.40;12.50;;;9.50;18.00;;;;;;6232345;23;20160;-80
2024/01/30 04:59:08;;;;;;;13.70;12.90;;;9.50;17.80;;;;;;6264181;23;20159;-78
2024/01/30 05:01:34;;;;;;;13.23;12.13;;;9.50;17.60;;;;;;6236409;23;20155;-78
2024/01/30 05:04:00;;;;;;;13.50;12.50;;;9.60;18.30;;;;;;6236050;23;20390;-78
2024/01/30 05:06:27;;;;;;;13.63;12.73;;;9.40;18.10;;;;;;6233187;23;20425;-79
2024/01/30 05:08:53;;;;;;;14.60;13.50;;;9.40;18.00;;;;;;6264212;23;20405;-78
2024/01/30 05:11:18;;;;;;;12.73;12.03;;;9.40;17.70;;;;;;6264077;23;20777;-78
2024/01/30 05:13:44;;;;;;;13.60;12.80;;;9.40;17.70;;;;;;6265294;23;20381;-78
2024/01/30 05:16:10;;;;;;;12.63;11.83;;;9.50;17.60;;;;;;6264467;22;20163;-78
2024/01/30 05:18:35;;;;;;;12.20;11.30;;;9.50;17.30;;;;;;6238483;23;20166;-78
2024/01/30 05:21:02;;;;;;;13.83;12.97;;;9.50;17.40;;;;;;6239283;23;20167;-78
2024/01/30 05:23:28;;;;;;;12.20;11.57;;;9.50;17.40;;;;;;6240460;23;20147;-79
2024/01/30 05:25:53;;;;;;;13.37;12.67;;;9.40;17.50;;;;;;6263273;22;20418;-79
2024/01/30 05:28:19;;;;;;;13.37;12.67;;;9.40;17.60;;;;;;6264669;23;20218;-79
2024/01/30 05:30:44;;;;;;;12.07;11.40;;;9.40;17.60;;;;;;6237974;23;20151;-79
2024/01/30 05:33:11;;;;;;;12.13;11.40;;;9.40;17.60;;;;;;6262826;23;20210;-79
2024/01/30 05:35:37;;;;;;;12.07;11.47;;;9.30;17.70;;;;;;6237652;23;20171;-79
2024/01/30 05:38:04;;;;;;;13.27;12.47;;;9.30;17.60;;;;;;6265087;23;20397;-79
2024/01/30 05:40:29;;;;;;;13.97;13.07;;;9.20;18.00;;;;;;6237748;23;20390;-79
2024/01/30 05:42:55;;;;;;;13.10;12.30;;;9.20;18.50;;;;;;6265218;23;20870;-78
2024/01/30 05:45:23;;;;;;;14.40;13.50;;;9.20;18.10;;;;;;6265772;22;20167;-80
2024/01/30 05:47:48;;;;;;;13.93;13.13;;;9.20;18.20;;;;;;6239831;23;20511;-80
2024/01/30 05:50:14;;;;;;;13.73;12.93;;;9.10;18.20;;;;;;6259806;23;20370;-78
2024/01/30 05:52:40;;;;;;;12.93;11.97;;;9.20;18.40;;;;;;6228009;23;20151;-78
2024/01/30 05:55:06;;;;;;;12.30;11.50;;;9.10;18.30;;;;;;6226001;23;20900;-77
2024/01/30 05:57:31;;;;;;;13.33;12.50;;;9.10;18.40;;;;;;6257770;23;20155;-79
2024/01/30 05:59:57;;;;;;;12.90;12.10;;;9.10;18.60;;;;;;6259202;23;20184;-78
2024/01/30 06:02:25;;;;;;;14.50;13.60;;;9.10;18.60;;;;;;6233943;23;20239;-77
2024/01/30 06:04:51;;;;;;;14.10;13.20;;;9.10;18.60;;;;;;6260697;22;20609;-79
2024/01/30 06:07:17;;;;;;;14.30;13.50;;;9.10;18.50;;;;;;6235600;23;20383;-79
2024/01/30 06:09:43;;;;;;;15.20;14.30;;;9.10;18.40;;;;;;6231114;23;20190;-78
2024/01/30 06:12:09;;;;;;;13.37;12.53;;;9.10;18.40;;;;;;6232043;23;20387;-79
2024/01/30 06:14:34;;;;;;;13.33;12.50;;;9.00;18.50;;;;;;6266239;22;20226;-79
2024/01/30 06:17:00;;;;;;;14.93;13.93;;;9.00;18.60;;;;;;6268690;23;20494;-79
2024/01/30 06:19:25;;;;;;;14.00;13.20;;;9.00;18.60;;;;;;6263440;23;20162;-79
2024/01/30 06:21:51;;;;;;;14.60;13.70;;;9.00;18.70;;;;;;6257458;23;20211;-78
2024/01/30 06:24:16;;;;;;;14.50;13.50;;;9.00;18.60;;;;;;6236619;22;20167;-78
2024/01/30 06:26:42;;;;;;;15.83;14.83;;;9.00;18.40;;;;;;6257756;23;20230;-79
2024/01/30 06:29:08;;;;;;;13.70;12.70;;;9.00;18.50;;;;;;6230764;23;20183;-78
2024/01/30 06:31:39;;;;;;;15.20;14.27;;;9.00;18.50;;;;;;6255112;23;20148;-77
2024/01/30 06:34:05;;;;;;;15.93;14.83;;;9.00;18.60;;;;;;6254593;23;20189;-77
2024/01/30 06:36:30;;;;;;;15.13;14.23;;;9.00;18.60;;;;;;6230544;23;20394;-78
2024/01/30 06:38:56;;;;;;;15.70;14.70;;;9.00;18.70;;;;;;6270068;22;20152;-79
2024/01/30 06:41:21;;;;;;;15.10;14.10;;;8.90;18.80;;;;;;6270076;23;20207;-79
2024/01/30 06:43:47;;;;;;;15.20;14.30;;;8.90;18.90;;;;;;6266972;23;20146;-78
2024/01/30 06:46:12;;;;;;;15.43;14.57;;;8.90;19.00;;;;;;6256551;22;20168;-77
2024/01/30 06:48:40;;;;;;;15.40;14.40;;;8.90;19.10;;;;;;6254364;23;20167;-79
2024/01/30 06:51:05;;;;;;;15.50;14.50;;;8.90;19.00;;;;;;6234459;23;20151;-79
2024/01/30 06:53:31;;;;;;;15.10;14.10;;;8.90;18.90;;;;;;6228108;23;20382;-78
2024/01/30 06:55:56;;;;;;;14.93;13.93;;;8.90;19.00;;;;;;6291261;22;20194;-81
2024/01/30 06:58:22;;;;;;;14.80;13.90;;;8.90;18.90;;;;;;6310111;22;20154;-81
2024/01/30 07:00:47;;;;;;;14.17;13.30;;;8.90;19.00;;;;;;6282878;22;20153;-83
2024/01/30 07:03:13;;;;;;;15.20;14.20;;;8.90;19.00;;;;;;6282332;22;20154;-81
2024/01/30 07:05:39;;;;;;;13.70;12.63;;;8.80;18.90;;;;;;6262711;22;20174;-80
2024/01/30 07:08:04;;;;;;;13.93;12.90;;;8.80;18.90;;;;;;6252519;22;20205;-80
2024/01/30 07:10:31;;;;;;;13.43;12.53;;;8.80;19.10;;;;;;6279974;22;20201;-81
2024/01/30 07:12:57;;;;;;;14.80;13.90;;;8.80;19.10;;;;;;6252905;22;20155;-79
2024/01/30 07:15:22;;;;;;;15.03;13.93;;;8.80;19.20;;;;;;6279262;22;20768;-81
2024/01/30 07:17:48;;;;;;;14.03;13.03;;;8.80;19.20;;;;;;6252509;22;20162;-82
2024/01/30 07:20:13;;;;;;;14.27;13.27;;;8.80;19.10;;;;;;6251261;22;20165;-81
2024/01/30 07:22:40;;;;;;;15.27;14.07;;;8.80;19.10;;;;;;6264853;22;20159;-81
2024/01/30 07:25:06;;;;;;;14.40;13.50;;;8.90;19.10;;;;;;6266159;22;20201;-82
2024/01/30 07:27:31;;;;;;;14.93;13.83;;;8.80;19.00;;;;;;6269023;22;20428;-81
2024/01/30 07:29:57;;;;;;;14.50;13.50;;;8.80;19.10;;;;;;6269058;22;20388;-82
2024/01/30 07:32:23;;;;;;;15.40;14.37;;;8.80;19.10;;;;;;6256963;22;20151;-83
2024/01/30 07:34:49;;;;;;;14.73;13.70;;;8.80;19.00;;;;;;6255897;22;20170;-81
2024/01/30 07:37:15;;;;;;;14.30;13.27;;;8.80;19.10;;;;;;6283232;22;20374;-81
2024/01/30 07:39:42;;;;;;;14.00;13.03;;;8.80;19.20;;;;;;6256598;22;20543;-81
2024/01/30 07:42:07;;;;;;;15.03;14.10;;;8.80;19.00;;;;;;6280852;22;20439;-80
2024/01/30 07:44:33;;;;;;;15.30;14.30;;;8.80;19.10;;;;;;6281033;22;20805;-81
2024/01/30 07:46:59;;;;;;;15.20;14.20;;;8.80;19.30;;;;;;6276111;22;20150;-79
2024/01/30 07:49:25;;;;;;;15.07;14.17;;;8.80;19.20;;;;;;6279963;22;20284;-83
2024/01/30 07:51:51;;;;;;;14.37;13.57;;;8.80;19.10;;;;;;6229310;22;20385;-81
2024/01/30 07:54:17;;;;;;;14.60;13.60;;;8.80;19.00;;;;;;6254730;22;20449;-82
2024/01/30 07:56:42;;;;;;;14.30;13.50;;;8.90;19.10;;;;;;6254522;22;20165;-82
2024/01/30 07:59:12;;;;;;;14.67;13.67;;;8.90;18.90;;;;;;6281071;22;20378;-81
2024/01/30 08:01:38;;;;;;;15.60;14.63;;;8.90;18.90;;;;;;6279531;22;20174;-81
2024/01/30 08:04:03;;;;;;;14.07;13.17;;;8.90;18.90;;;;;;6254691;22;20511;-82
2024/01/30 08:06:29;;;;;;;17.50;13.60;;;8.90;18.80;;;;;;6280826;22;20460;-82
2024/01/30 08:08:55;;;;;;;14.63;13.77;;;9.00;18.90;;;;;;6280804;22;20175;-80
2024/01/30 08:11:26;;;;;;;14.20;13.20;;;9.00;18.90;;;;;;6252519;22;20533;-82
2024/01/30 08:13:52;;;;;;;14.17;13.17;;;9.00;18.80;;;;;;6254385;22;20431;-82
2024/01/30 08:16:18;;;;;;;15.33;14.23;;;9.10;18.90;;;;;;6253183;22;20393;-81
2024/01/30 08:18:43;;;;;;;14.50;13.23;;;9.10;18.70;;;;;;6282073;22;20381;-82
2024/01/30 08:21:09;;;;;;;14.40;13.30;;;9.10;18.40;;;;;;6281058;22;20236;-80
2024/01/30 08:23:35;;;;;;;15.30;14.10;;;9.10;18.60;;;;;;6253515;22;20155;-82
2024/01/30 08:26:00;;;;;;;15.70;14.40;;;9.10;18.40;;;;;;6281727;22;20205;-81
2024/01/30 08:28:26;;;;;;;14.73;13.50;;;9.20;18.40;;;;;;6255631;22;20208;-81
2024/01/30 08:30:52;;;;;;;14.00;12.87;;;9.20;18.40;;;;;;6280082;22;20151;-81
2024/01/30 08:33:18;;;;;;;15.03;13.97;;;9.20;18.40;;;;;;6278849;22;20154;-82
2024/01/30 08:35:43;;;;;;;15.27;14.23;;;9.20;18.00;;;;;;6254275;22;20448;-83
2024/01/30 08:38:09;;;;;;;15.50;14.43;;;9.00;19.00;;;;;;6253698;22;20155;-83
2024/01/30 08:47:29;;;;;;;16.03;14.73;;;9.20;19.70;;;;;;6227887;22;20391;-80
2024/01/30 08:49:54;;;;;;;15.60;14.50;;;9.30;19.50;;;;;;6262471;22;20393;-83
2024/01/30 08:52:20;;;;;;;16.20;14.90;;;9.40;19.10;;;;;;6260169;22;20185;-81
2024/01/30 08:54:45;;;;;;;17.67;16.20;;;9.50;18.70;;;;;;6254793;22;20197;-81
2024/01/30 08:57:11;;;;;;;15.53;14.17;;;9.40;18.40;;;;;;6251956;22;20147;-79
2024/01/30 08:59:36;;;;;;;16.50;15.20;;;9.20;18.60;;;;;;6281067;22;20146;-80
2024/01/30 09:02:03;;;;;;;16.63;15.13;;;9.00;18.70;;;;;;6255413;22;20151;-81
2024/01/30 09:04:28;;;;;;;17.77;16.37;;;9.10;18.80;;;;;;6284915;22;20154;-80
2024/01/30 09:06:54;;;;;;;16.73;15.33;;;9.10;18.90;;;;;;6251688;22;20380;-80
2024/01/30 09:09:22;;;;;;;16.57;15.50;;;9.10;18.50;;;;;;6259148;22;20200;-82
2024/01/30 09:11:48;;;;;;;16.70;15.50;;;9.00;18.90;;;;;;6290586;22;20373;-82
2024/01/30 09:14:14;;;;;;;16.33;15.03;;;9.10;18.90;;;;;;6285382;22;20388;-82
2024/01/30 09:16:39;;;;;;;16.13;15.13;;;9.20;18.80;;;;;;6255851;22;20234;-82
2024/01/30 09:19:15;;;;;;;16.77;15.77;;;9.40;18.80;;;;;;6255343;22;20611;-83
2024/01/30 09:21:44;;;;;;;17.33;16.03;;;9.40;18.00;;;;;;6255010;22;20171;-85
2024/01/30 09:24:22;;;;;;;16.70;15.40;;;9.50;17.80;;;;;;6231120;22;20722;-85
2024/01/30 09:26:48;;;;;;;18.17;16.90;;;9.50;18.30;;;;;;6254248;22;20381;-83
2024/01/30 09:29:52;;;;;;;17.93;16.43;;;9.60;18.20;;;;;;6255713;22;20499;-86
2024/01/30 09:32:18;;;;;;;17.50;15.77;;;9.70;18.10;;;;;;6281328;22;20384;-80
2024/01/30 09:34:44;;;;;;;18.03;16.70;;;9.90;17.90;;;;;;6253668;22;20401;-80
2024/01/30 09:37:09;;;;;;;17.20;15.90;;;9.90;17.50;;;;;;6280696;22;20175;-82
2024/01/30 09:39:35;;;;;;;16.53;15.13;;;10.00;16.40;;;;;;6257203;22;20150;-81
2024/01/30 09:42:50;;;;;;;20.90;19.37;;;10.00;16.60;;;;;;6256247;22;20154;-83
2024/01/30 09:45:17;;;;;;;22.73;21.03;;;10.10;16.50;;;;;;6255768;22;20178;-83
2024/01/30 09:47:54;;;;;;;18.10;16.90;;;10.20;16.20;;;;;;6280403;22;20463;-83
2024/01/30 09:50:20;;;;;;;16.77;15.50;;;10.20;16.20;;;;;;6282207;22;20431;-81
2024/01/30 09:52:49;;;;;;;39.10;35.00;;;9.90;17.30;;;;;;6255382;22;20437;-84
2024/01/30 09:55:53;;;;;;;17.43;15.73;;;9.90;17.80;;;;;;6253870;22;20425;-83
2024/01/30 09:59:23;;;;;;;17.90;16.60;;;9.80;17.50;;;;;;6256536;22;20439;-84
2024/01/30 10:02:19;;;;;;;18.07;16.63;;;9.80;17.80;;;;;;6235365;22;20534;-83
2024/01/30 10:04:48;;;;;;;17.13;15.70;;;10.00;16.60;;;;;;6234226;22;20604;-82
2024/01/30 10:07:14;;;;;;;17.77;16.57;;;10.10;16.20;;;;;;6254825;22;20382;-82
2024/01/30 10:09:40;;;;;;;18.27;16.90;;;10.20;16.10;;;;;;6254680;22;20429;-81
2024/01/30 10:12:07;;;;;;;18.37;16.87;;;10.20;16.10;;;;;;6255356;22;20409;-83
2024/01/30 10:14:33;;;;;;;16.30;15.00;;;10.30;16.70;;;;;;6254330;22;20167;-81
2024/01/30 10:16:59;;;;;;;16.90;15.70;;;10.30;16.20;;;;;;6280645;22;20377;-82
2024/01/30 10:19:24;;;;;;;18.13;16.57;;;10.40;16.00;;;;;;6255744;22;20162;-83
2024/01/30 10:22:04;;;;;;;18.40;16.90;;;10.50;16.00;;;;;;6253844;22;20504;-84
2024/01/30 10:24:29;;;;;;;17.33;16.00;;;10.60;16.00;;;;;;6282207;22;20147;-80
2024/01/30 10:26:55;;;;;;;16.53;15.30;;;10.60;15.70;;;;;;6253320;22;20380;-81
2024/01/30 10:29:21;;;;;;;16.43;15.23;;;10.50;15.60;;;;;;6256312;22;20208;-82
2024/01/30 10:32:01;;;;;;;17.47;16.37;;;10.50;16.50;;;;;;6257136;22;20401;-82
2024/01/30 10:34:27;;;;;;;17.53;16.23;;;10.50;16.30;;;;;;6279977;22;20638;-82
2024/01/30 10:37:07;;;;;;;16.80;15.60;;;10.50;16.10;;;;;;6280768;22;20376;-81
2024/01/30 10:39:37;;;;;;;17.10;15.80;;;10.60;16.40;;;;;;6279319;22;20706;-82
2024/01/30 10:42:05;;;;;;;17.67;16.50;;;10.60;16.40;;;;;;6277791;22;20842;-81
2024/01/30 10:44:39;;;;;;;20.30;19.00;;;10.60;16.40;;;;;;6278499;22;20417;-82
2024/01/30 10:47:10;;;;;;;21.83;20.33;;;10.60;16.00;;;;;;6250189;22;20437;-83
2024/01/30 10:49:36;;;;;;;18.93;17.43;;;10.70;15.40;;;;;;6252151;22;20417;-83
2024/01/30 10:52:05;;;;;;;23.30;21.70;;;10.80;15.50;;;;;;6279193;22;20373;-81
2024/01/30 10:54:33;;;;;;;18.13;16.77;;;10.90;15.80;;;;;;6279100;22;20388;-82
2024/01/30 10:57:01;;;;;;;19.47;18.17;;;11.00;15.60;;;;;;6277776;22;20695;-84
2024/01/30 10:59:28;;;;;;;19.20;17.73;;;11.10;15.70;;;;;;6279307;22;20369;-83
2024/01/30 11:01:54;;;;;;;17.57;16.23;;;11.10;15.40;;;;;;6251114;22;20900;-81
2024/01/30 11:04:20;;;;;;;18.17;16.43;;;11.20;15.10;;;;;;6251811;22;20441;-82
2024/01/30 11:06:48;;;;;;;18.47;17.07;;;11.30;15.00;;;;;;6251072;22;20443;-81
2024/01/30 11:09:17;;;;;;;17.07;15.70;;;11.40;15.00;;;;;;6252428;22;20483;-82
2024/01/30 11:12:00;;;;;;;18.27;16.77;;;11.20;14.90;;;;;;6280145;22;20399;-80
2024/01/30 11:14:26;;;;;;;19.20;17.80;;;11.10;15.60;;;;;;6289035;22;20388;-80
2024/01/30 11:16:52;;;;;;;19.07;17.70;;;11.20;15.20;;;;;;6278691;22;20843;-80
2024/01/30 11:19:30;;;;;;;19.17;17.63;;;11.30;15.80;;;;;;6252877;22;20388;-80
2024/01/30 11:21:59;;;;;;;19.80;18.20;;;11.40;15.00;;;;;;6280437;22;20357;-80
2024/01/30 11:24:25;;;;;;;21.37;19.60;;;11.50;15.00;;;;;;6250871;22;20758;-81
2024/01/30 11:26:58;;;;;;;17.80;16.63;;;11.50;14.60;;;;;;6253589;22;20440;-83
2024/01/30 11:29:28;;;;;;;19.70;17.63;;;11.50;15.20;;;;;;6280324;22;20193;-83
2024/01/30 11:31:55;;;;;;;18.93;17.63;;;11.40;14.70;;;;;;6278988;22;20404;-83
2024/01/30 11:34:22;;;;;;;17.10;15.53;;;11.50;15.30;;;;;;6253435;22;20373;-85
2024/01/30 11:37:01;;;;;;;17.60;16.40;;;11.60;15.20;;;;;;6250967;22;20383;-85
2024/01/30 11:39:29;;;;;;;18.90;17.37;;;11.60;14.90;;;;;;6250584;22;20441;-85
2024/01/30 11:41:55;;;;;;;17.67;16.30;;;11.60;14.50;;;;;;6251751;22;20412;-85
2024/01/30 11:45:20;;;;;;;18.30;17.10;;;11.60;15.10;;;;;;6277601;22;20389;-86
2024/01/30 11:47:49;;;;;;;18.70;17.07;;;11.70;15.20;;;;;;6276616;22;20459;-85
2024/01/30 11:50:15;;;;;;;17.80;16.50;;;11.80;15.10;;;;;;6251736;22;20441;-85
2024/01/30 11:52:44;;;;;;;19.10;17.57;;;11.70;14.80;;;;;;6251621;22;20404;-86
2024/01/30 11:55:14;;;;;;;17.10;15.70;;;11.80;14.60;;;;;;6251859;22;20402;-86
2024/01/30 11:57:58;;;;;;;18.33;16.40;;;11.80;14.50;;;;;;6252209;22;20385;-85
2024/01/30 12:00:24;;;;;;;17.97;16.63;;;11.90;14.80;;;;;;6276336;22;20389;-85
2024/01/30 12:02:58;;;;;;;19.00;17.23;;;12.00;14.70;;;;;;6250555;22;20788;-86
2024/01/30 12:05:24;;;;;;;16.63;15.43;;;12.00;14.90;;;;;;6251713;22;20401;-86
2024/01/30 12:07:50;;;;;;;18.37;16.77;;;12.00;14.90;;;;;;6250665;22;20447;-86
2024/01/30 12:10:17;;;;;;;18.10;16.53;;;12.10;15.10;;;;;;6275875;22;20373;-85
2024/01/30 12:12:48;;;;;;;17.03;15.83;;;11.90;14.00;;;;;;6252548;22;20385;-86
2024/01/30 12:15:14;;;;;;;17.70;16.40;;;11.80;14.90;;;;;;6252863;22;20492;-85
2024/01/30 12:17:40;;;;;;;17.07;15.57;;;11.90;14.50;;;;;;6253190;22;20388;-85
2024/01/30 12:20:07;;;;;;;18.17;16.57;;;11.80;14.60;;;;;;6279112;22;20552;-80
2024/01/30 12:22:40;;;;;;;16.53;15.53;;;11.90;14.60;;;;;;6279291;22;20216;-84
2024/01/30 12:25:10;;;;;;;16.53;15.27;;;11.80;14.50;;;;;;6251060;22;20432;-83
2024/01/30 12:27:38;;;;;;;17.67;16.10;;;11.90;15.10;;;;;;6252709;22;20392;-84
2024/01/30 12:30:08;;;;;;;18.80;15.87;;;11.80;15.20;;;;;;6252701;22;20468;-83
2024/01/30 12:32:42;;;;;;;18.70;16.90;;;11.90;15.40;;;;;;6279146;22;20369;-84
2024/01/30 12:35:11;;;;;;;17.73;16.10;;;11.90;15.40;;;;;;6251822;22;20394;-84
2024/01/30 12:37:37;;;;;;;18.63;17.20;;;11.90;15.40;;;;;;6271849;22;20404;-82
2024/01/30 12:40:02;;;;;;;16.87;15.53;;;11.90;15.40;;;;;;6276213;22;20408;-83
2024/01/30 12:42:29;;;;;;;17.80;16.50;;;12.00;15.40;;;;;;6277629;22;20408;-83
2024/01/30 12:44:57;;;;;;;17.53;16.23;;;12.10;15.40;;;;;;6275348;22;20194;-84